sensor_id;sensor_type;location;lat;lon;timestamp;P1;durP1;ratioP1;P2;durP2;ratioP2
6249;SDS011;3158;52.148;11.568;2024-01-11T00:02:01;16.27;;;7.50;;
6249;SDS011;3158;52.148;11.568;2024-01-11T00:07:02;9.17;;;5.80;;
6249;SDS011;3158;52.148;11.568;2024-01-11T00:12:04;15.87;;;6.97;;
6249;SDS011;3158;52.148;11.568;2024-01-11T00:17:05;15.73;;;7.60;;
6249;SDS011;3158;52.148;11.568;2024-01-11T00:22:06;17.57;;;6.87;;
6249;SDS011;3158;52.148;11.568;2024-01-11T00:27:07;17.63;;;7.20;;
6249;SDS011;3158;52.148;11.568;2024-01-11T00:32:09;10.27;;;5.93;;
6249;SDS011;3158;52.148;11.568;2024-01-11T00:37:10;16.47;;;5.83;;
6249;SDS011;3158;52.148;11.568;2024-01-11T00:42:11;30.93;;;6.80;;
6249;SDS011;3158;52.148;11.568;2024-01-11T00:47:12;18.37;;;7.23;;
6249;SDS011;3158;52.148;11.568;2024-01-11T00:52:13;10.47;;;6.77;;
6249;SDS011;3158;52.148;11.568;2024-01-11T00:57:14;12.20;;;5.60;;
6249;SDS011;3158;52.148;11.568;2024-01-11T01:02:15;13.60;;;6.23;;
6249;SDS011;3158;52.148;11.568;2024-01-11T01:07:15;14.27;;;5.57;;
6249;SDS011;3158;52.148;11.568;2024-01-11T01:12:16;9.07;;;5.20;;
6249;SDS011;3158;52.148;11.568;2024-01-11T01:17:17;10.13;;;5.17;;
6249;SDS011;3158;52.148;11.568;2024-01-11T01:22:18;21.07;;;5.27;;
6249;SDS011;3158;52.148;11.568;2024-01-11T01:27:19;8.77;;;5.37;;
6249;SDS011;3158;52.148;11.568;2024-01-11T01:32:20;9.33;;;5.20;;
6249;SDS011;3158;52.148;11.568;2024-01-11T01:37:22;13.03;;;5.23;;
6249;SDS011;3158;52.148;11.568;2024-01-11T01:42:23;10.10;;;5.33;;
6249;SDS011;3158;52.148;11.568;2024-01-11T01:47:24;9.80;;;3.57;;
6249;SDS011;3158;52.148;11.568;2024-01-11T01:52:26;13.83;;;5.57;;
6249;SDS011;3158;52.148;11.568;2024-01-11T01:57:27;9.37;;;4.33;;
6249;SDS011;3158;52.148;11.568;2024-01-11T02:02:29;11.90;;;6.00;;
6249;SDS011;3158;52.148;11.568;2024-01-11T02:07:30;8.73;;;4.50;;
6249;SDS011;3158;52.148;11.568;2024-01-11T02:12:32;11.30;;;5.67;;
6249;SDS011;3158;52.148;11.568;2024-01-11T02:17:33;10.73;;;5.23;;
6249;SDS011;3158;52.148;11.568;2024-01-11T02:22:35;6.63;;;4.50;;
6249;SDS011;3158;52.148;11.568;2024-01-11T02:27:46;15.57;;;4.77;;
6249;SDS011;3158;52.148;11.568;2024-01-11T02:32:48;13.93;;;4.93;;
6249;SDS011;3158;52.148;11.568;2024-01-11T02:37:49;12.33;;;5.20;;
6249;SDS011;3158;52.148;11.568;2024-01-11T02:42:50;14.97;;;4.50;;
6249;SDS011;3158;52.148;11.568;2024-01-11T02:47:51;16.33;;;4.87;;
6249;SDS011;3158;52.148;11.568;2024-01-11T02:52:52;7.40;;;4.70;;
6249;SDS011;3158;52.148;11.568;2024-01-11T02:57:53;9.53;;;4.43;;
6249;SDS011;3158;52.148;11.568;2024-01-11T03:02:54;13.37;;;4.53;;
6249;SDS011;3158;52.148;11.568;2024-01-11T03:07:55;14.03;;;5.43;;
6249;SDS011;3158;52.148;11.568;2024-01-11T03:12:57;9.97;;;4.60;;
6249;SDS011;3158;52.148;11.568;2024-01-11T03:17:58;11.10;;;4.30;;
6249;SDS011;3158;52.148;11.568;2024-01-11T03:22:59;10.00;;;5.80;;
6249;SDS011;3158;52.148;11.568;2024-01-11T03:28:00;15.43;;;5.80;;
6249;SDS011;3158;52.148;11.568;2024-01-11T03:33:01;14.43;;;5.27;;
6249;SDS011;3158;52.148;11.568;2024-01-11T03:38:02;7.43;;;5.20;;
6249;SDS011;3158;52.148;11.568;2024-01-11T03:43:03;8.73;;;4.80;;
6249;SDS011;3158;52.148;11.568;2024-01-11T03:48:04;11.90;;;4.60;;
6249;SDS011;3158;52.148;11.568;2024-01-11T03:53:05;9.13;;;4.77;;
6249;SDS011;3158;52.148;11.568;2024-01-11T03:58:06;11.73;;;4.73;;
6249;SDS011;3158;52.148;11.568;2024-01-11T04:03:07;9.77;;;5.57;;
6249;SDS011;3158;52.148;11.568;2024-01-11T04:08:08;10.87;;;4.00;;
6249;SDS011;3158;52.148;11.568;2024-01-11T04:13:09;7.33;;;4.90;;
6249;SDS011;3158;52.148;11.568;2024-01-11T04:18:10;9.33;;;4.40;;
6249;SDS011;3158;52.148;11.568;2024-01-11T04:23:11;5.27;;;3.93;;
6249;SDS011;3158;52.148;11.568;2024-01-11T04:28:12;12.80;;;6.40;;
6249;SDS011;3158;52.148;11.568;2024-01-11T04:33:13;11.10;;;5.37;;
6249;SDS011;3158;52.148;11.568;2024-01-11T04:38:14;10.63;;;4.43;;
6249;SDS011;3158;52.148;11.568;2024-01-11T04:43:15;6.03;;;3.83;;
6249;SDS011;3158;52.148;11.568;2024-01-11T04:48:16;13.07;;;4.33;;
6249;SDS011;3158;52.148;11.568;2024-01-11T04:53:18;9.87;;;4.20;;
6249;SDS011;3158;52.148;11.568;2024-01-11T04:58:19;6.93;;;4.30;;
6249;SDS011;3158;52.148;11.568;2024-01-11T05:03:20;7.77;;;3.30;;
6249;SDS011;3158;52.148;11.568;2024-01-11T05:08:21;6.10;;;4.10;;
6249;SDS011;3158;52.148;11.568;2024-01-11T05:13:23;4.43;;;3.63;;
6249;SDS011;3158;52.148;11.568;2024-01-11T05:18:23;10.20;;;5.17;;
6249;SDS011;3158;52.148;11.568;2024-01-11T05:23:24;10.90;;;5.03;;
6249;SDS011;3158;52.148;11.568;2024-01-11T05:28:25;7.37;;;3.53;;
6249;SDS011;3158;52.148;11.568;2024-01-11T05:33:26;11.83;;;4.67;;
6249;SDS011;3158;52.148;11.568;2024-01-11T05:38:27;6.87;;;3.93;;
6249;SDS011;3158;52.148;11.568;2024-01-11T05:43:29;7.77;;;5.23;;
6249;SDS011;3158;52.148;11.568;2024-01-11T05:48:30;6.07;;;3.97;;
6249;SDS011;3158;52.148;11.568;2024-01-11T05:53:31;18.73;;;5.93;;
6249;SDS011;3158;52.148;11.568;2024-01-11T05:58:35;7.90;;;4.63;;
6249;SDS011;3158;52.148;11.568;2024-01-11T06:03:39;17.70;;;5.07;;
6249;SDS011;3158;52.148;11.568;2024-01-11T06:08:40;11.27;;;5.23;;
6249;SDS011;3158;52.148;11.568;2024-01-11T06:13:43;9.83;;;5.13;;
6249;SDS011;3158;52.148;11.568;2024-01-11T06:18:44;7.57;;;4.63;;
6249;SDS011;3158;52.148;11.568;2024-01-11T06:23:45;11.30;;;5.30;;
6249;SDS011;3158;52.148;11.568;2024-01-11T06:28:46;9.17;;;6.27;;
6249;SDS011;3158;52.148;11.568;2024-01-11T06:33:47;15.10;;;6.37;;
6249;SDS011;3158;52.148;11.568;2024-01-11T06:38:48;12.60;;;6.40;;
6249;SDS011;3158;52.148;11.568;2024-01-11T06:43:49;10.80;;;5.53;;
6249;SDS011;3158;52.148;11.568;2024-01-11T06:48:50;13.80;;;5.77;;
6249;SDS011;3158;52.148;11.568;2024-01-11T06:53:51;20.00;;;6.13;;
6249;SDS011;3158;52.148;11.568;2024-01-11T06:58:52;13.43;;;5.97;;
6249;SDS011;3158;52.148;11.568;2024-01-11T07:03:53;16.13;;;6.40;;
6249;SDS011;3158;52.148;11.568;2024-01-11T07:08:54;7.20;;;5.70;;
6249;SDS011;3158;52.148;11.568;2024-01-11T07:13:55;12.73;;;5.40;;
6249;SDS011;3158;52.148;11.568;2024-01-11T07:18:56;15.50;;;7.33;;
6249;SDS011;3158;52.148;11.568;2024-01-11T07:24:00;13.87;;;6.80;;
6249;SDS011;3158;52.148;11.568;2024-01-11T07:29:01;8.60;;;5.70;;
6249;SDS011;3158;52.148;11.568;2024-01-11T07:34:02;14.27;;;6.70;;
6249;SDS011;3158;52.148;11.568;2024-01-11T07:39:03;11.57;;;5.73;;
6249;SDS011;3158;52.148;11.568;2024-01-11T07:44:04;15.07;;;6.67;;
6249;SDS011;3158;52.148;11.568;2024-01-11T07:49:08;10.50;;;6.20;;
6249;SDS011;3158;52.148;11.568;2024-01-11T07:54:10;8.93;;;5.57;;
6249;SDS011;3158;52.148;11.568;2024-01-11T07:59:11;17.00;;;7.17;;
6249;SDS011;3158;52.148;11.568;2024-01-11T08:04:14;32.43;;;7.87;;
6249;SDS011;3158;52.148;11.568;2024-01-11T08:09:15;15.40;;;7.77;;
6249;SDS011;3158;52.148;11.568;2024-01-11T08:14:16;11.80;;;7.20;;
6249;SDS011;3158;52.148;11.568;2024-01-11T08:19:17;19.43;;;7.47;;
6249;SDS011;3158;52.148;11.568;2024-01-11T08:24:18;14.90;;;7.23;;
6249;SDS011;3158;52.148;11.568;2024-01-11T08:29:19;21.33;;;10.27;;
6249;SDS011;3158;52.148;11.568;2024-01-11T08:34:20;18.37;;;8.37;;
6249;SDS011;3158;52.148;11.568;2024-01-11T08:39:21;21.60;;;9.17;;
6249;SDS011;3158;52.148;11.568;2024-01-11T08:44:23;24.23;;;8.47;;
6249;SDS011;3158;52.148;11.568;2024-01-11T08:49:24;28.33;;;8.67;;
6249;SDS011;3158;52.148;11.568;2024-01-11T08:54:25;15.67;;;7.17;;
6249;SDS011;3158;52.148;11.568;2024-01-11T08:59:27;20.27;;;8.17;;
6249;SDS011;3158;52.148;11.568;2024-01-11T09:04:27;15.87;;;7.67;;
6249;SDS011;3158;52.148;11.568;2024-01-11T09:09:29;19.53;;;8.73;;
6249;SDS011;3158;52.148;11.568;2024-01-11T09:14:31;15.03;;;7.60;;
6249;SDS011;3158;52.148;11.568;2024-01-11T09:19:32;14.30;;;8.57;;
6249;SDS011;3158;52.148;11.568;2024-01-11T09:24:39;14.90;;;6.80;;
6249;SDS011;3158;52.148;11.568;2024-01-11T09:29:44;16.83;;;8.13;;
6249;SDS011;3158;52.148;11.568;2024-01-11T09:34:45;17.27;;;8.50;;
6249;SDS011;3158;52.148;11.568;2024-01-11T09:39:46;15.30;;;6.70;;
6249;SDS011;3158;52.148;11.568;2024-01-11T09:44:47;17.13;;;7.50;;
6249;SDS011;3158;52.148;11.568;2024-01-11T09:49:48;14.37;;;6.17;;
6249;SDS011;3158;52.148;11.568;2024-01-11T09:54:51;15.67;;;6.13;;
6249;SDS011;3158;52.148;11.568;2024-01-11T09:59:52;14.50;;;5.60;;
6249;SDS011;3158;52.148;11.568;2024-01-11T10:04:55;12.70;;;6.17;;
6249;SDS011;3158;52.148;11.568;2024-01-11T10:09:56;13.43;;;6.33;;
6249;SDS011;3158;52.148;11.568;2024-01-11T10:15:04;17.07;;;6.10;;
6249;SDS011;3158;52.148;11.568;2024-01-11T10:20:06;14.50;;;5.87;;
6249;SDS011;3158;52.148;11.568;2024-01-11T10:25:11;9.97;;;4.60;;
6249;SDS011;3158;52.148;11.568;2024-01-11T10:30:13;11.33;;;6.20;;
6249;SDS011;3158;52.148;11.568;2024-01-11T10:35:16;11.97;;;5.27;;
6249;SDS011;3158;52.148;11.568;2024-01-11T10:40:18;9.73;;;5.55;;
6249;SDS011;3158;52.148;11.568;2024-01-11T10:45:24;10.63;;;5.50;;
6249;SDS011;3158;52.148;11.568;2024-01-11T10:50:26;10.95;;;5.38;;
6249;SDS011;3158;52.148;11.568;2024-01-11T10:55:28;7.13;;;5.32;;
6249;SDS011;3158;52.148;11.568;2024-01-11T11:00:29;14.20;;;6.55;;
6249;SDS011;3158;52.148;11.568;2024-01-11T11:05:31;9.63;;;5.65;;
6249;SDS011;3158;52.148;11.568;2024-01-11T11:10:35;12.03;;;5.77;;
6249;SDS011;3158;52.148;11.568;2024-01-11T11:15:36;9.90;;;5.05;;
6249;SDS011;3158;52.148;11.568;2024-01-11T11:20:39;9.52;;;5.50;;
6249;SDS011;3158;52.148;11.568;2024-01-11T11:25:43;11.35;;;4.78;;
6249;SDS011;3158;52.148;11.568;2024-01-11T11:30:47;8.43;;;4.60;;
6249;SDS011;3158;52.148;11.568;2024-01-11T11:35:51;8.50;;;4.85;;
6249;SDS011;3158;52.148;11.568;2024-01-11T11:40:53;11.32;;;4.82;;
6249;SDS011;3158;52.148;11.568;2024-01-11T11:45:54;8.67;;;5.10;;
6249;SDS011;3158;52.148;11.568;2024-01-11T11:56:06;11.32;;;5.15;;
6249;SDS011;3158;52.148;11.568;2024-01-11T12:01:09;8.87;;;4.90;;
6249;SDS011;3158;52.148;11.568;2024-01-11T12:06:10;9.20;;;5.30;;
6249;SDS011;3158;52.148;11.568;2024-01-11T12:11:15;7.23;;;4.53;;
6249;SDS011;3158;52.148;11.568;2024-01-11T12:16:18;8.73;;;4.53;;
6249;SDS011;3158;52.148;11.568;2024-01-11T12:21:19;9.00;;;5.57;;
6249;SDS011;3158;52.148;11.568;2024-01-11T12:26:20;9.07;;;3.90;;
6249;SDS011;3158;52.148;11.568;2024-01-11T12:31:22;10.97;;;5.27;;
6249;SDS011;3158;52.148;11.568;2024-01-11T12:36:23;9.43;;;5.23;;
6249;SDS011;3158;52.148;11.568;2024-01-11T12:41:25;10.07;;;5.43;;
6249;SDS011;3158;52.148;11.568;2024-01-11T12:46:26;22.90;;;6.18;;
6249;SDS011;3158;52.148;11.568;2024-01-11T12:51:27;14.38;;;5.47;;
6249;SDS011;3158;52.148;11.568;2024-01-11T12:56:28;15.77;;;6.10;;
6249;SDS011;3158;52.148;11.568;2024-01-11T13:01:29;20.27;;;6.53;;
6249;SDS011;3158;52.148;11.568;2024-01-11T13:06:31;14.23;;;5.57;;
6249;SDS011;3158;52.148;11.568;2024-01-11T13:11:34;20.25;;;6.18;;
6249;SDS011;3158;52.148;11.568;2024-01-11T13:16:35;14.50;;;6.78;;
6249;SDS011;3158;52.148;11.568;2024-01-11T13:21:36;17.93;;;6.93;;
6249;SDS011;3158;52.148;11.568;2024-01-11T13:26:37;15.35;;;5.30;;
6249;SDS011;3158;52.148;11.568;2024-01-11T13:39:30;15.10;;;6.47;;
6249;SDS011;3158;52.148;11.568;2024-01-11T13:45:46;23.57;;;6.60;;
6249;SDS011;3158;52.148;11.568;2024-01-11T13:50:47;26.30;;;6.60;;
6249;SDS011;3158;52.148;11.568;2024-01-11T13:55:48;11.40;;;5.10;;
6249;SDS011;3158;52.148;11.568;2024-01-11T14:00:49;12.98;;;5.53;;
6249;SDS011;3158;52.148;11.568;2024-01-11T14:05:50;11.43;;;4.50;;
6249;SDS011;3158;52.148;11.568;2024-01-11T14:10:51;11.13;;;4.70;;
6249;SDS011;3158;52.148;11.568;2024-01-11T14:15:54;13.40;;;4.37;;
6249;SDS011;3158;52.148;11.568;2024-01-11T14:20:55;12.43;;;4.18;;
6249;SDS011;3158;52.148;11.568;2024-01-11T14:25:56;8.30;;;4.57;;
6249;SDS011;3158;52.148;11.568;2024-01-11T14:30:57;10.85;;;4.38;;
6249;SDS011;3158;52.148;11.568;2024-01-11T14:35:58;7.30;;;3.25;;
6249;SDS011;3158;52.148;11.568;2024-01-11T14:40:59;9.38;;;4.18;;
6249;SDS011;3158;52.148;11.568;2024-01-11T14:46:00;7.60;;;3.67;;
6249;SDS011;3158;52.148;11.568;2024-01-11T14:51:01;5.10;;;3.13;;
6249;SDS011;3158;52.148;11.568;2024-01-11T14:56:04;9.05;;;4.35;;
6249;SDS011;3158;52.148;11.568;2024-01-11T15:01:05;10.95;;;4.32;;
6249;SDS011;3158;52.148;11.568;2024-01-11T15:06:06;6.88;;;3.83;;
6249;SDS011;3158;52.148;11.568;2024-01-11T15:11:08;6.07;;;3.45;;
6249;SDS011;3158;52.148;11.568;2024-01-11T15:16:09;14.02;;;3.90;;
6249;SDS011;3158;52.148;11.568;2024-01-11T15:21:10;6.60;;;3.05;;
6249;SDS011;3158;52.148;11.568;2024-01-11T15:26:11;6.63;;;3.05;;
6249;SDS011;3158;52.148;11.568;2024-01-11T15:31:12;5.45;;;2.55;;
6249;SDS011;3158;52.148;11.568;2024-01-11T15:36:14;7.78;;;3.03;;
6249;SDS011;3158;52.148;11.568;2024-01-11T15:41:15;6.30;;;3.55;;
6249;SDS011;3158;52.148;11.568;2024-01-11T15:46:16;9.00;;;4.25;;
6249;SDS011;3158;52.148;11.568;2024-01-11T15:51:17;6.93;;;3.70;;
6249;SDS011;3158;52.148;11.568;2024-01-11T15:56:18;7.85;;;3.33;;
6249;SDS011;3158;52.148;11.568;2024-01-11T16:01:19;7.55;;;3.88;;
6249;SDS011;3158;52.148;11.568;2024-01-11T16:06:20;16.35;;;4.30;;
6249;SDS011;3158;52.148;11.568;2024-01-11T16:11:21;10.73;;;4.43;;
6249;SDS011;3158;52.148;11.568;2024-01-11T16:16:22;8.88;;;4.40;;
6249;SDS011;3158;52.148;11.568;2024-01-11T16:21:23;8.77;;;4.38;;
6249;SDS011;3158;52.148;11.568;2024-01-11T16:26:28;8.75;;;5.18;;
6249;SDS011;3158;52.148;11.568;2024-01-11T16:31:29;10.15;;;4.55;;
6249;SDS011;3158;52.148;11.568;2024-01-11T16:36:30;5.32;;;4.78;;
6249;SDS011;3158;52.148;11.568;2024-01-11T16:41:31;9.93;;;4.50;;
6249;SDS011;3158;52.148;11.568;2024-01-11T16:46:32;9.88;;;5.82;;
6249;SDS011;3158;52.148;11.568;2024-01-11T16:51:33;12.20;;;5.60;;
6249;SDS011;3158;52.148;11.568;2024-01-11T16:56:35;9.68;;;5.45;;
6249;SDS011;3158;52.148;11.568;2024-01-11T17:01:36;10.07;;;6.28;;
6249;SDS011;3158;52.148;11.568;2024-01-11T17:06:37;10.80;;;5.63;;
6249;SDS011;3158;52.148;11.568;2024-01-11T17:11:38;11.38;;;5.45;;
6249;SDS011;3158;52.148;11.568;2024-01-11T17:16:40;13.25;;;7.15;;
6249;SDS011;3158;52.148;11.568;2024-01-11T17:21:41;15.77;;;6.53;;
6249;SDS011;3158;52.148;11.568;2024-01-11T17:26:42;12.60;;;6.32;;
6249;SDS011;3158;52.148;11.568;2024-01-11T17:31:44;11.93;;;6.40;;
6249;SDS011;3158;52.148;11.568;2024-01-11T17:36:45;13.38;;;6.18;;
6249;SDS011;3158;52.148;11.568;2024-01-11T17:41:46;14.85;;;7.43;;
6249;SDS011;3158;52.148;11.568;2024-01-11T17:46:47;17.17;;;6.93;;
6249;SDS011;3158;52.148;11.568;2024-01-11T17:51:48;13.63;;;6.90;;
6249;SDS011;3158;52.148;11.568;2024-01-11T17:56:55;13.98;;;6.20;;
6249;SDS011;3158;52.148;11.568;2024-01-11T18:01:57;19.20;;;7.00;;
6249;SDS011;3158;52.148;11.568;2024-01-11T18:06:58;22.35;;;10.32;;
6249;SDS011;3158;52.148;11.568;2024-01-11T18:11:59;30.98;;;14.07;;
6249;SDS011;3158;52.148;11.568;2024-01-11T18:17:00;17.73;;;7.85;;
6249;SDS011;3158;52.148;11.568;2024-01-11T18:22:01;16.02;;;7.20;;
6249;SDS011;3158;52.148;11.568;2024-01-11T18:27:02;21.38;;;9.75;;
6249;SDS011;3158;52.148;11.568;2024-01-11T18:32:08;14.60;;;7.40;;
6249;SDS011;3158;52.148;11.568;2024-01-11T18:37:09;19.23;;;7.47;;
6249;SDS011;3158;52.148;11.568;2024-01-11T18:42:10;16.20;;;7.00;;
6249;SDS011;3158;52.148;11.568;2024-01-11T18:47:12;18.08;;;6.47;;
6249;SDS011;3158;52.148;11.568;2024-01-11T18:52:13;16.00;;;8.18;;
6249;SDS011;3158;52.148;11.568;2024-01-11T18:57:14;15.93;;;7.27;;
6249;SDS011;3158;52.148;11.568;2024-01-11T19:02:16;21.38;;;7.25;;
6249;SDS011;3158;52.148;11.568;2024-01-11T19:07:17;22.88;;;8.93;;
6249;SDS011;3158;52.148;11.568;2024-01-11T19:12:18;17.08;;;6.43;;
6249;SDS011;3158;52.148;11.568;2024-01-11T19:17:19;22.40;;;7.63;;
6249;SDS011;3158;52.148;11.568;2024-01-11T19:22:20;20.08;;;7.35;;
6249;SDS011;3158;52.148;11.568;2024-01-11T19:27:21;26.52;;;9.07;;
6249;SDS011;3158;52.148;11.568;2024-01-11T19:32:23;27.90;;;8.60;;
6249;SDS011;3158;52.148;11.568;2024-01-11T19:37:24;21.70;;;8.13;;
6249;SDS011;3158;52.148;11.568;2024-01-11T19:42:25;25.23;;;7.25;;
6249;SDS011;3158;52.148;11.568;2024-01-11T19:47:26;25.20;;;7.43;;
6249;SDS011;3158;52.148;11.568;2024-01-11T19:52:27;21.38;;;6.63;;
6249;SDS011;3158;52.148;11.568;2024-01-11T19:57:28;25.98;;;9.00;;
6249;SDS011;3158;52.148;11.568;2024-01-11T20:02:31;39.78;;;11.85;;
6249;SDS011;3158;52.148;11.568;2024-01-11T20:07:32;28.20;;;8.20;;
6249;SDS011;3158;52.148;11.568;2024-01-11T20:12:34;25.17;;;7.97;;
6249;SDS011;3158;52.148;11.568;2024-01-11T20:17:36;29.85;;;8.52;;
6249;SDS011;3158;52.148;11.568;2024-01-11T20:22:37;35.15;;;11.50;;
6249;SDS011;3158;52.148;11.568;2024-01-11T20:27:38;33.33;;;8.50;;
6249;SDS011;3158;52.148;11.568;2024-01-11T20:32:39;26.45;;;9.10;;
6249;SDS011;3158;52.148;11.568;2024-01-11T20:37:40;31.98;;;11.57;;
6249;SDS011;3158;52.148;11.568;2024-01-11T20:42:41;34.13;;;10.60;;
6249;SDS011;3158;52.148;11.568;2024-01-11T20:47:42;32.00;;;8.25;;
6249;SDS011;3158;52.148;11.568;2024-01-11T20:52:44;34.65;;;10.00;;
6249;SDS011;3158;52.148;11.568;2024-01-11T20:57:45;34.22;;;8.82;;
6249;SDS011;3158;52.148;11.568;2024-01-11T21:02:45;30.42;;;10.50;;
6249;SDS011;3158;52.148;11.568;2024-01-11T21:07:47;32.28;;;9.65;;
6249;SDS011;3158;52.148;11.568;2024-01-11T21:12:47;28.08;;;8.50;;
6249;SDS011;3158;52.148;11.568;2024-01-11T21:17:49;29.83;;;9.63;;
6249;SDS011;3158;52.148;11.568;2024-01-11T21:22:50;20.67;;;8.65;;
6249;SDS011;3158;52.148;11.568;2024-01-11T21:27:51;35.45;;;12.40;;
6249;SDS011;3158;52.148;11.568;2024-01-11T21:32:52;28.77;;;8.80;;
6249;SDS011;3158;52.148;11.568;2024-01-11T21:37:53;31.95;;;10.45;;
6249;SDS011;3158;52.148;11.568;2024-01-11T21:42:54;17.50;;;7.28;;
6249;SDS011;3158;52.148;11.568;2024-01-11T21:47:55;22.20;;;7.43;;
6249;SDS011;3158;52.148;11.568;2024-01-11T21:52:56;20.98;;;7.03;;
6249;SDS011;3158;52.148;11.568;2024-01-11T21:57:57;27.38;;;7.45;;
6249;SDS011;3158;52.148;11.568;2024-01-11T22:02:58;15.50;;;6.25;;
6249;SDS011;3158;52.148;11.568;2024-01-11T22:07:59;16.30;;;6.40;;
6249;SDS011;3158;52.148;11.568;2024-01-11T22:13:00;20.10;;;6.03;;
6249;SDS011;3158;52.148;11.568;2024-01-11T22:18:02;24.00;;;7.13;;
6249;SDS011;3158;52.148;11.568;2024-01-11T22:23:03;20.95;;;6.90;;
6249;SDS011;3158;52.148;11.568;2024-01-11T22:28:04;23.40;;;7.05;;
6249;SDS011;3158;52.148;11.568;2024-01-11T22:33:05;19.45;;;6.65;;
6249;SDS011;3158;52.148;11.568;2024-01-11T22:38:06;20.13;;;5.93;;
6249;SDS011;3158;52.148;11.568;2024-01-11T22:43:08;22.42;;;7.60;;
6249;SDS011;3158;52.148;11.568;2024-01-11T22:48:09;24.35;;;6.88;;
6249;SDS011;3158;52.148;11.568;2024-01-11T22:53:10;24.65;;;6.88;;
6249;SDS011;3158;52.148;11.568;2024-01-11T22:58:11;16.55;;;5.60;;
6249;SDS011;3158;52.148;11.568;2024-01-11T23:03:12;19.45;;;6.20;;
6249;SDS011;3158;52.148;11.568;2024-01-11T23:08:13;22.42;;;6.10;;
6249;SDS011;3158;52.148;11.568;2024-01-11T23:13:14;17.67;;;5.75;;
6249;SDS011;3158;52.148;11.568;2024-01-11T23:18:16;22.25;;;6.60;;
6249;SDS011;3158;52.148;11.568;2024-01-11T23:23:16;20.38;;;7.07;;
6249;SDS011;3158;52.148;11.568;2024-01-11T23:28:17;16.30;;;5.78;;
6249;SDS011;3158;52.148;11.568;2024-01-11T23:33:21;19.10;;;5.80;;
6249;SDS011;3158;52.148;11.568;2024-01-11T23:38:23;28.58;;;7.43;;
6249;SDS011;3158;52.148;11.568;2024-01-11T23:43:24;23.10;;;7.70;;
6249;SDS011;3158;52.148;11.568;2024-01-11T23:48:25;19.70;;;6.93;;
6249;SDS011;3158;52.148;11.568;2024-01-11T23:53:26;25.85;;;6.78;;
6249;SDS011;3158;52.148;11.568;2024-01-11T23:58:27;24.45;;;7.30;;
